createdAt,value
2023-01-29T01:31:02.788Z,92.8
2023-01-29T01:36:51.158Z,92.1
2023-01-29T01:42:40.981Z,92.3
2023-01-29T01:48:32.309Z,92.1
2023-01-29T01:54:22.466Z,93
2023-01-29T02:00:12.366Z,94.2
2023-01-29T02:06:06.658Z,93.1
2023-01-29T02:11:56.761Z,93.3
2023-01-29T02:17:48.551Z,93.1
2023-01-29T02:23:38.331Z,93.1
2023-01-29T02:29:30.397Z,92.8
2023-01-29T02:35:20.232Z,92.9
2023-01-29T02:41:10.275Z,94.1
2023-01-29T02:47:02.100Z,95.1
2023-01-29T02:52:52.247Z,94.2
2023-01-29T02:58:43.103Z,94.4
2023-01-29T03:04:34.557Z,93.8
2023-01-29T03:10:25.187Z,94.6
2023-01-29T03:16:15.097Z,95.1
2023-01-29T03:22:05.771Z,94
2023-01-29T03:27:56.093Z,94.2
2023-01-29T03:33:46.211Z,94.5
2023-01-29T03:39:38.254Z,94.3
2023-01-29T03:45:27.931Z,94.9
2023-01-29T03:51:18.692Z,95.4
2023-01-29T03:57:09.173Z,94.2
2023-01-29T04:02:59.840Z,93.5
2023-01-29T04:08:52.160Z,94.4
2023-01-29T04:14:41.896Z,94.8
2023-01-29T04:20:32.976Z,95.5
2023-01-29T04:26:22.819Z,95.7
2023-01-29T04:32:13.093Z,96.8
2023-01-29T04:38:01.501Z,100
2023-01-29T04:43:51.592Z,98.2
2023-01-29T04:49:41.836Z,95.6
2023-01-29T04:55:32.933Z,96.5
2023-01-29T05:01:24.007Z,95.9
2023-01-29T05:08:22.805Z,95.9
2023-01-29T05:14:12.207Z,97.3
2023-01-29T05:20:01.735Z,97.1
2023-01-29T05:25:52.183Z,96.2
2023-01-29T05:31:43.024Z,95.5
2023-01-29T05:37:33.859Z,95.7
2023-01-29T05:43:25.909Z,95.6
2023-01-29T05:49:16.563Z,96.3
2023-01-29T05:55:04.313Z,95.6
2023-01-29T06:00:54.852Z,96.1
2023-01-29T06:06:44.615Z,97.2
2023-01-29T06:12:34.509Z,98
2023-01-29T06:18:24.623Z,97.3
2023-01-29T06:24:15.015Z,96.2
2023-01-29T06:30:05.642Z,96.5
2023-01-29T06:35:56.660Z,96.2
2023-01-29T06:41:47.456Z,96.5
2023-01-29T06:47:36.987Z,96.8
2023-01-29T06:53:27.538Z,98
2023-01-29T06:59:18.787Z,99.8
2023-01-29T07:05:10.585Z,99.5
2023-01-29T07:11:00.603Z,100
2023-01-29T07:16:51.781Z,100
2023-01-29T07:22:41.928Z,100
2023-01-29T07:28:32.720Z,100
2023-01-29T07:34:27.069Z,100
2023-01-29T07:40:18.347Z,99.7
2023-01-29T07:47:26.429Z,99.6
2023-01-29T07:53:18.805Z,99.2
2023-01-29T07:59:19.750Z,100
2023-01-29T08:12:04.397Z,100
2023-01-29T08:18:00.734Z,100
2023-01-29T08:24:07.644Z,98.3
2023-01-29T08:30:38.869Z,98.4
2023-01-29T08:36:32.448Z,98.4
2023-01-29T08:42:24.530Z,97.5
2023-01-29T08:48:18.752Z,96.9
2023-01-29T09:00:32.827Z,95.9
2023-01-29T09:06:27.064Z,95.8
2023-01-29T09:12:25.563Z,94.8
2023-01-29T09:18:37.168Z,94
2023-01-29T09:24:46.529Z,93.4
2023-01-29T09:30:46.428Z,93.2
2023-01-29T09:37:15.881Z,92
2023-01-29T09:43:32.108Z,91.8
2023-01-29T09:49:45.039Z,91
2023-01-29T09:55:39.913Z,90.2
2023-01-29T10:01:31.135Z,90
2023-01-29T10:07:35.365Z,90.1
2023-01-29T10:13:42.794Z,88.6
2023-01-29T10:19:49.986Z,88.4
2023-01-29T10:26:11.143Z,87.9
2023-01-29T10:32:22.560Z,86.7
2023-01-29T10:38:18.658Z,87
2023-01-29T10:44:22.929Z,86.8
2023-01-29T10:50:31.386Z,86.1
2023-01-29T11:02:49.164Z,83.9
2023-01-29T11:08:56.692Z,84
2023-01-29T11:15:03.104Z,84.2
2023-01-29T11:20:58.347Z,82.1
2023-01-29T11:27:16.659Z,82.7
2023-01-29T11:39:53.714Z,81.5
2023-01-29T11:45:56.373Z,81.2
2023-01-29T11:52:03.105Z,80.5
2023-01-29T11:58:07.204Z,81.8
2023-01-29T12:22:34.922Z,80.6
2023-01-29T12:28:25.299Z,80.3
2023-01-29T12:34:16.286Z,79.7
2023-01-29T12:40:09.651Z,79.3
2023-01-29T12:46:01.835Z,79.8
2023-01-29T12:51:52.703Z,79.3
2023-01-29T12:57:43.809Z,79
2023-01-29T13:03:34.171Z,78.9
2023-01-29T13:09:26.653Z,79.1
2023-01-29T13:15:17.620Z,79.4
2023-01-29T13:21:13.630Z,77.8
2023-01-29T13:27:04.497Z,78.1
2023-01-29T13:33:00.421Z,77.8
2023-01-29T13:39:04.428Z,77.6
2023-01-29T13:44:56.726Z,77.2
2023-01-29T13:50:48.203Z,77
2023-01-29T13:56:39.053Z,77.5
2023-01-29T14:02:32.313Z,77.1
2023-01-29T14:08:24.263Z,77
2023-01-29T14:14:15.979Z,76.6
2023-01-29T14:20:07.567Z,76.4
2023-01-29T14:26:01.349Z,76.3
2023-01-29T14:31:51.833Z,76.7
2023-01-29T14:38:54.056Z,76.8
2023-01-29T14:44:42.625Z,76.7
2023-01-29T14:50:32.962Z,76.8
2023-01-29T14:56:24.300Z,77
2023-01-29T15:02:21.585Z,76.9
2023-01-29T15:08:15.476Z,76.6
2023-01-29T15:14:07.569Z,76.7
2023-01-29T15:19:57.164Z,76.7
2023-01-29T15:25:48.410Z,77.5
2023-01-29T15:31:40.529Z,77.7
2023-01-29T15:37:33.911Z,77.8
2023-01-29T15:43:27.011Z,77.8
2023-01-29T15:49:17.789Z,78
2023-01-29T15:55:06.832Z,78.3
2023-01-29T16:00:55.785Z,78.6
2023-01-29T16:06:45.544Z,78.4
2023-01-29T16:12:34.069Z,79.3
2023-01-29T16:18:22.667Z,80.4
2023-01-29T16:24:11.321Z,80.7
2023-01-29T16:31:09.368Z,81.1
2023-01-29T16:36:56.971Z,81
2023-01-29T16:42:45.771Z,81.2
2023-01-29T16:48:34.338Z,81.1
2023-01-29T16:54:23.258Z,81.7
2023-01-29T17:00:11.941Z,81.6
2023-01-29T17:06:00.539Z,81.4
2023-01-29T17:11:49.290Z,81.1
2023-01-29T17:17:38.436Z,81.5
2023-01-29T17:23:28.001Z,81.7
2023-01-29T17:29:18.445Z,82.1
2023-01-29T17:35:07.177Z,82.1
2023-01-29T17:40:56.095Z,82.3
2023-01-29T17:46:45.359Z,82.2
2023-01-29T17:52:33.982Z,82.7
2023-01-29T17:58:22.630Z,82.6
2023-01-29T18:04:11.229Z,82.5
2023-01-29T18:10:00.486Z,82.4
2023-01-29T18:15:49.682Z,81.9
2023-01-29T18:21:39.795Z,81.8
2023-01-29T18:27:29.976Z,81.6
2023-01-29T18:33:20.235Z,81.6
2023-01-29T18:39:11.352Z,81.4
2023-01-29T18:45:01.927Z,81.7
2023-01-29T18:50:51.578Z,81.2
2023-01-29T18:58:25.788Z,81.6
2023-01-29T19:04:21.026Z,81.7
2023-01-29T19:10:09.404Z,81.9
2023-01-29T19:15:57.707Z,82.1
2023-01-29T19:21:45.846Z,82.9
2023-01-29T19:27:33.912Z,83.5
2023-01-29T19:33:23.575Z,83.6
2023-01-29T19:39:11.852Z,84.3
2023-01-29T19:45:00.685Z,83.9
2023-01-29T19:50:50.599Z,84.5
2023-01-29T19:56:44.458Z,85.4
2023-01-29T20:02:37.329Z,85.7
2023-01-29T20:08:27.216Z,85.4
2023-01-29T20:14:18.957Z,85.6
2023-01-29T20:20:09.216Z,85.5
2023-01-29T20:26:01.861Z,85.4
2023-01-29T20:31:51.853Z,86.3
2023-01-29T20:37:44.967Z,86.9
2023-01-29T20:43:34.851Z,86.9
2023-01-29T20:49:31.804Z,86.8
2023-01-29T20:55:21.953Z,87.2
2023-01-29T21:01:13.532Z,87.4
2023-01-29T21:07:04.739Z,88.1
2023-01-29T21:12:55.683Z,88
2023-01-29T21:18:46.533Z,88.6
2023-01-29T21:24:38.324Z,88.5
2023-01-29T21:30:28.324Z,89.3
2023-01-29T21:36:18.382Z,90.3
2023-01-29T21:42:09.727Z,90.7
2023-01-29T21:48:01.720Z,90.7
2023-01-29T21:53:51.877Z,91.1
2023-01-29T21:59:41.975Z,91.3
2023-01-29T22:05:38.352Z,91.4
2023-01-29T22:11:28.481Z,91.4
2023-01-29T22:17:19.141Z,91.7
2023-01-29T22:23:07.842Z,92
2023-01-29T22:28:58.288Z,92
2023-01-29T22:34:48.625Z,92.1
2023-01-29T22:40:38.384Z,92.1
2023-01-29T22:46:29.282Z,92.2
2023-01-29T22:52:20.344Z,93.9
2023-01-29T22:58:11.368Z,94.8
2023-01-29T23:04:01.079Z,94.7
2023-01-29T23:09:51.947Z,95.1
2023-01-29T23:15:43.429Z,94.6
2023-01-29T23:21:33.907Z,94.8
2023-01-29T23:27:24.769Z,94.9
2023-01-29T23:33:15.332Z,95.1
2023-01-29T23:39:05.907Z,95.4
2023-01-29T23:44:56.753Z,96
2023-01-29T23:50:54.758Z,95.9
2023-01-29T23:56:45.296Z,95.8
